Time;durP1;ratioP1;P1;durP2;ratioP2;P2;SDS_P1;SDS_P2;PMS_P1;PMS_P2;Temp;Humidity;BMP_temperature;BMP_pressure;BME280_temperature;BME280_humidity;BME280_pressure;Samples;Min_cycle;Max_cycle;Signal;HPM_P1;HPM_P2
2023/01/26 00:02:01;;;;;;;28.83;13.90;;;2.90;72.80;;;;;;5073190;28;20119;-13
2023/01/26 00:04:26;;;;;;;31.98;15.23;;;3.00;73.40;;;;;;5072824;28;20395;-12
2023/01/26 00:06:52;;;;;;;26.25;14.32;;;2.90;73.30;;;;;;5072810;28;20031;-12
2023/01/26 00:09:18;;;;;;;27.77;13.75;;;2.90;73.70;;;;;;5073122;28;20517;-12
2023/01/26 00:11:44;;;;;;;29.05;15.02;;;2.90;73.80;;;;;;5072722;28;20407;-12
2023/01/26 00:14:10;;;;;;;27.10;13.80;;;2.90;73.50;;;;;;5072600;28;20028;-12
2023/01/26 00:16:35;;;;;;;30.40;14.73;;;2.90;74.00;;;;;;5072688;28;20029;-13
2023/01/26 00:19:04;;;;;;;27.95;15.15;;;2.90;73.90;;;;;;5072498;28;20078;-12
2023/01/26 00:21:30;;;;;;;25.90;12.90;;;2.90;74.60;;;;;;5072867;28;20032;-13
2023/01/26 00:23:58;;;;;;;32.08;15.57;;;2.90;74.10;;;;;;5072866;28;20056;-12
2023/01/26 00:26:26;;;;;;;24.92;12.95;;;2.80;74.80;;;;;;5073082;28;20031;-12
2023/01/26 00:28:53;;;;;;;27.08;12.55;;;2.80;74.80;;;;;;5072450;28;20094;-12
2023/01/26 00:31:22;;;;;;;27.55;13.10;;;2.70;74.60;;;;;;5072616;28;20512;-13
2023/01/26 00:33:49;;;;;;;25.02;12.70;;;2.70;74.10;;;;;;5072272;28;20495;-13
2023/01/26 00:36:15;;;;;;;24.15;12.88;;;2.70;74.20;;;;;;5072475;28;20052;-13
2023/01/26 00:38:41;;;;;;;25.98;13.63;;;2.70;74.50;;;;;;5070961;28;20123;-13
2023/01/26 00:41:07;;;;;;;26.63;12.63;;;2.70;74.70;;;;;;5072369;28;20032;-13
2023/01/26 00:43:33;;;;;;;25.13;13.65;;;2.70;75.00;;;;;;5072659;28;20529;-12
2023/01/26 00:45:59;;;;;;;25.90;13.07;;;2.70;75.10;;;;;;5072615;28;20036;-14
2023/01/26 00:48:25;;;;;;;29.27;13.65;;;2.70;74.60;;;;;;5072338;28;20479;-13
2023/01/26 00:50:51;;;;;;;28.13;13.65;;;2.70;74.20;;;;;;5071976;28;20173;-12
2023/01/26 00:53:17;;;;;;;24.38;12.07;;;2.70;74.10;;;;;;5072691;28;20112;-13
2023/01/26 00:55:43;;;;;;;22.30;11.43;;;2.70;74.00;;;;;;5072472;28;20111;-12
2023/01/26 00:58:09;;;;;;;22.05;11.57;;;2.70;73.90;;;;;;5072312;28;20553;-12
2023/01/26 01:00:37;;;;;;;24.55;11.25;;;2.70;74.30;;;;;;5072549;28;20025;-12
2023/01/26 01:03:04;;;;;;;25.40;12.32;;;2.70;74.30;;;;;;5071910;28;20029;-13
2023/01/26 01:05:31;;;;;;;25.15;12.40;;;2.70;74.00;;;;;;5072410;28;20499;-13
2023/01/26 01:07:57;;;;;;;24.65;12.43;;;2.70;73.90;;;;;;5072133;28;20032;-13
2023/01/26 01:10:25;;;;;;;22.67;11.20;;;2.70;73.90;;;;;;5072946;28;20025;-14
2023/01/26 01:12:51;;;;;;;21.83;11.48;;;2.70;73.80;;;;;;5071879;28;20457;-12
2023/01/26 01:15:17;;;;;;;23.38;10.80;;;2.70;73.70;;;;;;5072121;28;20063;-12
2023/01/26 01:17:43;;;;;;;19.23;9.68;;;2.70;73.70;;;;;;5072409;28;20038;-12
2023/01/26 01:20:10;;;;;;;24.30;10.95;;;2.70;73.90;;;;;;5072620;28;20178;-13
2023/01/26 01:22:36;;;;;;;20.48;9.68;;;2.70;74.30;;;;;;5072303;28;20021;-12
2023/01/26 01:25:02;;;;;;;21.35;10.02;;;2.70;74.10;;;;;;5072401;28;20487;-13
2023/01/26 01:27:28;;;;;;;16.15;8.45;;;2.60;74.00;;;;;;5071666;28;20027;-14
2023/01/26 01:29:54;;;;;;;19.73;9.43;;;2.70;74.20;;;;;;5071924;28;20112;-14
2023/01/26 01:32:20;;;;;;;20.20;10.18;;;2.80;74.20;;;;;;5072142;28;20115;-14
2023/01/26 01:34:47;;;;;;;19.23;9.70;;;2.80;73.70;;;;;;5071658;28;20041;-14
2023/01/26 01:37:14;;;;;;;20.55;9.35;;;2.80;73.50;;;;;;5075137;28;20033;-13
2023/01/26 01:39:40;;;;;;;21.55;9.77;;;2.80;73.40;;;;;;5075415;28;20219;-12
2023/01/26 01:42:06;;;;;;;18.92;8.98;;;2.80;73.50;;;;;;5075490;28;20104;-15
2023/01/26 01:44:35;;;;;;;17.60;8.40;;;2.90;73.50;;;;;;5075418;28;20025;-13
2023/01/26 01:47:05;;;;;;;18.60;8.52;;;2.90;73.30;;;;;;5073733;28;20046;-13
2023/01/26 01:49:36;;;;;;;50.13;18.92;;;2.90;73.10;;;;;;5075683;28;20568;-14
2023/01/26 01:52:17;;;;;;;34.67;15.13;;;2.90;73.20;;;;;;5075472;28;20376;-13
2023/01/26 01:54:51;;;;;;;28.48;13.77;;;3.00;73.10;;;;;;5075185;28;20029;-13
2023/01/26 01:57:31;;;;;;;18.95;9.65;;;3.00;73.00;;;;;;5075335;28;20532;-14
2023/01/26 02:00:04;;;;;;;18.23;9.90;;;3.10;73.20;;;;;;5075214;28;20059;-12
2023/01/26 02:02:30;;;;;;;20.08;8.98;;;3.10;73.00;;;;;;5075391;28;20020;-13
2023/01/26 02:05:02;;;;;;;19.73;8.75;;;3.10;73.10;;;;;;5074889;28;20025;-13
2023/01/26 02:07:31;;;;;;;19.20;8.95;;;3.10;73.40;;;;;;5075062;28;20488;-13
2023/01/26 02:12:43;;;;;;;17.77;8.60;;;3.10;73.10;;;;;;5075076;28;20104;-13
2023/01/26 02:15:09;;;;;;;14.25;7.50;;;3.20;73.30;;;;;;5074704;28;20021;-14
2023/01/26 02:17:35;;;;;;;16.17;8.70;;;3.20;73.20;;;;;;5075009;28;20067;-13
2023/01/26 02:20:25;;;;;;;15.93;8.13;;;3.30;73.30;;;;;;5074873;28;20434;-13
2023/01/26 02:23:19;;;;;;;15.55;8.18;;;3.30;73.30;;;;;;5074645;28;20032;-14
2023/01/26 02:25:48;;;;;;;16.98;8.48;;;3.30;73.10;;;;;;5074650;28;20039;-13
2023/01/26 02:28:16;;;;;;;16.42;7.13;;;3.30;73.20;;;;;;5074427;28;20618;-13
2023/01/26 02:30:42;;;;;;;15.80;7.40;;;3.40;73.00;;;;;;5074774;28;20046;-13
2023/01/26 02:33:17;;;;;;;25.70;11.68;;;3.40;72.90;;;;;;5074116;28;20029;-13
2023/01/26 02:35:43;;;;;;;15.88;8.20;;;3.50;72.80;;;;;;5074361;28;20072;-14
2023/01/26 02:38:09;;;;;;;20.60;9.63;;;3.50;72.80;;;;;;5074029;28;20077;-14
2023/01/26 02:44:08;;;;;;;14.38;7.63;;;3.60;72.80;;;;;;5032591;28;20071;-14
2023/01/26 02:46:34;;;;;;;18.63;8.82;;;3.50;72.70;;;;;;5015055;28;20038;-13
2023/01/26 02:51:45;;;;;;;19.67;9.07;;;3.60;72.80;;;;;;5032280;28;20059;-13
2023/01/26 02:55:21;;;;;;;19.27;9.27;;;3.60;72.90;;;;;;5032085;28;20029;-13
2023/01/26 02:56:56;;;;;;;19.08;9.55;;;3.60;73.30;;;;;;5031253;28;20091;-13
2023/01/26 02:59:22;;;;;;;17.45;8.32;;;3.60;73.20;;;;;;5032372;28;20038;-13
2023/01/26 03:01:51;;;;;;;19.02;9.07;;;3.60;72.80;;;;;;5031719;28;20040;-14
2023/01/26 03:04:17;;;;;;;18.70;8.55;;;3.60;72.70;;;;;;5032229;28;20026;-13
2023/01/26 03:06:43;;;;;;;18.67;9.25;;;3.70;72.60;;;;;;5031926;28;20046;-13
2023/01/26 03:09:09;;;;;;;18.95;9.27;;;3.70;72.50;;;;;;5031434;28;20436;-13
2023/01/26 03:11:40;;;;;;;17.58;8.75;;;3.70;72.40;;;;;;5031910;28;20100;-13
2023/01/26 03:14:08;;;;;;;20.23;9.25;;;3.70;72.40;;;;;;5032034;28;20033;-13
2023/01/26 03:16:34;;;;;;;20.27;9.45;;;3.70;72.40;;;;;;5014956;28;20413;-13
2023/01/26 03:27:45;;;;;;;19.77;8.85;;;3.80;72.10;;;;;;5073396;28;20047;-14
2023/01/26 03:29:46;;;;;;;17.80;8.80;;;3.70;72.10;;;;;;5069273;28;20060;-13
2023/01/26 03:32:12;;;;;;;17.85;9.05;;;3.70;72.00;;;;;;5073641;28;20024;-14
2023/01/26 03:34:38;;;;;;;18.67;9.20;;;3.70;72.10;;;;;;5072958;28;20135;-13
2023/01/26 03:37:04;;;;;;;17.95;8.73;;;3.70;72.10;;;;;;5072991;28;20100;-14
2023/01/26 03:58:53;;;;;;;18.88;9.70;;;3.80;72.30;;;;;;5072465;28;20101;-13
2023/01/26 04:01:26;;;;;;;19.42;10.43;;;3.80;72.20;;;;;;5073230;28;20032;-13
2023/01/26 04:09:26;;;;;;;17.13;9.02;;;3.80;72.70;;;;;;5073015;28;20093;-13
2023/01/26 04:11:52;;;;;;;20.25;10.98;;;3.80;72.60;;;;;;5072822;28;20040;-13
2023/01/26 04:22:43;;;;;;;22.63;9.45;;;3.70;72.80;;;;;;5073139;28;20102;-13
2023/01/26 04:25:18;;;;;;;17.98;9.85;;;3.70;72.80;;;;;;5072460;28;20496;-13
2023/01/26 04:27:44;;;;;;;22.98;11.10;;;3.80;73.00;;;;;;5072344;28;20032;-12
2023/01/26 04:30:17;;;;;;;22.48;10.82;;;3.70;73.50;;;;;;5072953;28;20039;-12
2023/01/26 04:32:44;;;;;;;21.70;10.32;;;3.70;73.40;;;;;;5072564;28;20035;-12
2023/01/26 04:35:11;;;;;;;18.08;9.70;;;3.70;73.30;;;;;;5072033;28;20523;-12
2023/01/26 04:37:38;;;;;;;23.08;10.68;;;3.70;73.40;;;;;;5072401;28;20036;-12
2023/01/26 04:40:05;;;;;;;19.80;9.93;;;3.70;73.40;;;;;;5072562;28;20385;-12
2023/01/26 04:42:31;;;;;;;17.20;8.45;;;3.70;73.40;;;;;;5072424;28;20024;-11
2023/01/26 04:44:57;;;;;;;22.85;9.65;;;3.70;73.60;;;;;;5072231;28;20021;-12
2023/01/26 04:47:23;;;;;;;21.35;11.00;;;3.70;74.00;;;;;;5072313;28;20052;-12
2023/01/26 04:49:49;;;;;;;25.13;11.63;;;3.60;74.20;;;;;;5072277;28;20060;-13
2023/01/26 04:52:15;;;;;;;21.20;11.30;;;3.70;73.90;;;;;;5072692;28;20021;-12
2023/01/26 04:54:41;;;;;;;26.13;12.45;;;3.70;74.10;;;;;;5072227;28;20515;-13
2023/01/26 04:57:08;;;;;;;22.83;10.93;;;3.60;73.90;;;;;;5071926;28;20036;-13
2023/01/26 04:59:33;;;;;;;24.58;11.60;;;3.60;74.10;;;;;;5072192;28;20024;-13
2023/01/26 05:01:59;;;;;;;17.27;9.77;;;3.60;74.10;;;;;;5072123;28;20036;-13
2023/01/26 05:04:25;;;;;;;21.13;9.80;;;3.60;74.30;;;;;;5072316;28;20025;-14
2023/01/26 05:06:51;;;;;;;23.13;10.90;;;3.60;74.20;;;;;;5071988;28;20063;-12
2023/01/26 05:09:17;;;;;;;26.85;12.02;;;3.60;74.40;;;;;;5072307;28;20115;-13
2023/01/26 05:11:42;;;;;;;18.50;9.32;;;3.60;74.30;;;;;;5075028;28;20043;-13
2023/01/26 05:14:08;;;;;;;18.88;9.35;;;3.50;74.40;;;;;;5075783;28;20040;-12
2023/01/26 05:16:34;;;;;;;23.20;10.77;;;3.60;74.40;;;;;;5075815;28;20025;-13
2023/01/26 05:19:00;;;;;;;19.25;10.10;;;3.60;74.40;;;;;;5075929;28;20036;-12
2023/01/26 05:21:27;;;;;;;23.13;9.90;;;3.50;74.50;;;;;;5075849;28;20435;-12
2023/01/26 05:23:53;;;;;;;23.77;11.63;;;3.50;74.40;;;;;;5076242;28;20045;-12
2023/01/26 05:26:19;;;;;;;20.90;10.82;;;3.50;74.50;;;;;;5075697;28;20531;-12
2023/01/26 05:28:45;;;;;;;23.50;10.32;;;3.50;74.50;;;;;;5075286;28;20099;-13
2023/01/26 05:31:11;;;;;;;22.45;11.57;;;3.50;74.60;;;;;;5075366;28;20017;-12
2023/01/26 05:33:37;;;;;;;22.23;10.48;;;3.40;74.70;;;;;;5075642;28;20114;-14
2023/01/26 05:36:05;;;;;;;19.42;9.93;;;3.40;74.60;;;;;;5075564;28;20399;-12
2023/01/26 05:38:31;;;;;;;17.80;9.45;;;3.40;74.80;;;;;;5075396;28;20533;-12
2023/01/26 05:40:58;;;;;;;22.25;10.68;;;3.40;74.90;;;;;;5075101;28;20024;-12
2023/01/26 05:43:24;;;;;;;23.90;10.75;;;3.40;74.90;;;;;;5075251;28;20039;-12
2023/01/26 05:45:50;;;;;;;24.52;11.75;;;3.40;74.90;;;;;;5075850;28;20503;-11
2023/01/26 05:48:16;;;;;;;21.58;10.02;;;3.40;75.00;;;;;;5075206;28;20028;-12
2023/01/26 05:50:42;;;;;;;17.75;9.60;;;3.40;75.00;;;;;;5075226;28;20094;-13
2023/01/26 05:53:07;;;;;;;16.83;9.43;;;3.50;75.10;;;;;;5075048;28;20212;-13
2023/01/26 05:55:33;;;;;;;24.60;11.68;;;3.50;75.10;;;;;;5075569;28;20043;-12
2023/01/26 05:57:59;;;;;;;22.08;11.38;;;3.50;75.00;;;;;;5075120;28;20028;-12
2023/01/26 06:00:25;;;;;;;21.15;10.75;;;3.50;75.00;;;;;;5075187;28;20125;-12
2023/01/26 06:02:51;;;;;;;25.38;11.15;;;3.50;75.00;;;;;;5074880;28;20032;-12
2023/01/26 06:05:17;;;;;;;24.88;11.13;;;3.40;74.80;;;;;;5075214;28;20017;-12
2023/01/26 06:07:42;;;;;;;23.77;10.88;;;3.30;74.80;;;;;;5074910;28;20033;-12
2023/01/26 06:10:09;;;;;;;22.60;11.05;;;3.30;74.90;;;;;;5074807;28;20052;-12
2023/01/26 06:12:35;;;;;;;20.98;11.02;;;3.10;75.00;;;;;;5075433;28;20033;-12
2023/01/26 06:15:01;;;;;;;27.05;12.27;;;3.10;75.00;;;;;;5074958;28;20149;-13
2023/01/26 06:17:27;;;;;;;22.20;10.95;;;2.90;75.20;;;;;;5074494;28;20037;-13
2023/01/26 06:19:53;;;;;;;23.27;12.15;;;2.90;75.40;;;;;;5074621;28;20039;-12
2023/01/26 06:22:19;;;;;;;22.05;10.75;;;2.80;75.60;;;;;;5074821;28;20094;-13
2023/01/26 06:24:45;;;;;;;24.58;12.38;;;2.70;75.70;;;;;;5073404;28;20024;-13
2023/01/26 06:27:17;;;;;;;24.33;12.80;;;2.60;75.70;;;;;;5074255;28;20074;-13
2023/01/26 06:29:43;;;;;;;24.00;11.57;;;2.50;75.70;;;;;;5074574;28;20550;-12
2023/01/26 06:32:13;;;;;;;28.27;13.88;;;2.40;75.90;;;;;;5074792;28;20086;-12
2023/01/26 06:34:39;;;;;;;22.92;11.85;;;2.30;76.10;;;;;;5074541;28;20052;-14
2023/01/26 06:37:06;;;;;;;26.98;12.20;;;2.20;76.20;;;;;;5074290;28;20100;-13
2023/01/26 06:39:32;;;;;;;24.30;11.15;;;2.10;76.40;;;;;;5074524;28;20033;-13
2023/01/26 06:41:58;;;;;;;15.30;9.07;;;2.10;76.50;;;;;;5074556;28;20016;-13
2023/01/26 06:44:24;;;;;;;27.95;12.45;;;2.10;76.70;;;;;;5074289;28;20039;-14
2023/01/26 06:46:50;;;;;;;26.13;12.40;;;2.00;76.60;;;;;;5073839;28;20115;-13
2023/01/26 06:49:16;;;;;;;23.33;11.13;;;2.00;77.10;;;;;;5074514;28;20028;-13
2023/01/26 06:51:53;;;;;;;30.60;12.48;;;2.00;77.00;;;;;;5074484;28;20412;-12
2023/01/26 06:54:20;;;;;;;42.35;15.77;;;1.90;76.70;;;;;;5074279;28;20114;-13
2023/01/26 06:56:45;;;;;;;32.15;13.45;;;1.90;76.60;;;;;;5074034;28;20029;-13
2023/01/26 06:59:11;;;;;;;28.10;13.57;;;1.90;76.70;;;;;;5073984;28;20035;-13
2023/01/26 07:01:42;;;;;;;24.80;10.85;;;1.90;76.80;;;;;;5074142;28;20024;-13
2023/01/26 07:04:08;;;;;;;23.92;10.77;;;1.90;76.90;;;;;;5074262;28;20029;-13
2023/01/26 07:06:33;;;;;;;23.15;11.93;;;1.90;76.80;;;;;;5073825;28;20384;-13
2023/01/26 07:09:00;;;;;;;21.98;11.60;;;1.90;76.80;;;;;;5073466;28;20017;-13
2023/01/26 07:11:28;;;;;;;19.58;10.23;;;1.90;76.90;;;;;;5073705;28;20403;-12
2023/01/26 07:13:55;;;;;;;26.40;12.30;;;1.90;77.00;;;;;;5073891;28;20051;-13
2023/01/26 07:16:20;;;;;;;29.20;13.38;;;2.00;77.10;;;;;;5073906;28;20024;-13
2023/01/26 07:18:46;;;;;;;25.45;12.52;;;2.10;77.10;;;;;;5073551;28;20502;-14
2023/01/26 07:21:17;;;;;;;29.92;14.55;;;2.30;77.10;;;;;;5073368;28;20438;-13
2023/01/26 07:23:44;;;;;;;31.77;15.63;;;2.50;77.10;;;;;;5073433;28;20497;-12
2023/01/26 07:26:10;;;;;;;33.80;15.35;;;2.70;77.00;;;;;;5073355;28;20063;-12
2023/01/26 07:28:36;;;;;;;43.33;16.33;;;2.90;76.80;;;;;;5073325;28;20025;-15
2023/01/26 07:31:04;;;;;;;32.60;12.60;;;3.10;76.60;;;;;;5073289;28;20032;-13
2023/01/26 07:33:31;;;;;;;26.58;12.23;;;3.20;76.50;;;;;;5072997;28;20028;-14
2023/01/26 07:35:59;;;;;;;27.50;13.25;;;3.40;76.30;;;;;;5072965;28;20044;-15
2023/01/26 07:38:27;;;;;;;29.67;13.95;;;3.50;76.30;;;;;;5073430;28;20369;-13
2023/01/26 07:40:53;;;;;;;20.42;10.75;;;3.60;76.20;;;;;;5072907;28;20070;-14
2023/01/26 07:43:19;;;;;;;23.98;10.85;;;3.70;76.00;;;;;;5072927;28;20028;-13
2023/01/26 07:45:47;;;;;;;21.05;11.02;;;3.80;75.80;;;;;;5073161;28;20027;-14
2023/01/26 07:48:14;;;;;;;22.35;10.02;;;3.90;75.70;;;;;;5073245;28;20063;-14
2023/01/26 07:50:40;;;;;;;19.33;10.40;;;4.00;75.50;;;;;;5072914;28;20040;-13
2023/01/26 07:53:08;;;;;;;23.65;11.18;;;4.20;75.00;;;;;;5073126;28;20027;-14
2023/01/26 07:55:34;;;;;;;26.90;13.18;;;4.40;74.00;;;;;;5072842;28;20086;-13
2023/01/26 07:58:00;;;;;;;28.10;13.35;;;4.60;73.20;;;;;;5072683;28;20488;-13
2023/01/26 08:00:26;;;;;;;29.75;12.88;;;4.70;72.80;;;;;;5072938;28;20040;-14
2023/01/26 08:02:52;;;;;;;22.40;11.70;;;4.70;72.40;;;;;;5072489;28;20020;-13
2023/01/26 08:05:18;;;;;;;22.65;11.80;;;4.80;72.20;;;;;;5072668;28;20024;-14
2023/01/26 08:07:44;;;;;;;19.92;10.95;;;4.80;72.00;;;;;;5072687;28;20077;-14
2023/01/26 08:10:12;;;;;;;22.35;10.52;;;4.70;72.10;;;;;;5072873;28;20032;-13
2023/01/26 08:12:38;;;;;;;25.20;11.82;;;4.80;71.90;;;;;;5072790;28;20095;-13
2023/01/26 08:15:04;;;;;;;22.15;10.23;;;4.70;71.40;;;;;;5072733;28;20369;-14
2023/01/26 08:17:32;;;;;;;23.00;11.10;;;4.70;71.90;;;;;;5072503;28;20039;-13
2023/01/26 08:19:58;;;;;;;18.70;9.48;;;4.60;71.50;;;;;;5072818;28;20037;-13
2023/01/26 08:22:24;;;;;;;23.80;10.80;;;4.60;71.70;;;;;;5072469;28;20358;-14
2023/01/26 08:24:50;;;;;;;19.50;10.38;;;4.60;71.30;;;;;;5073323;28;20071;-14
2023/01/26 08:27:16;;;;;;;21.23;11.60;;;4.60;71.50;;;;;;5072741;28;20024;-13
2023/01/26 08:29:42;;;;;;;26.40;11.10;;;4.60;72.00;;;;;;5072464;28;20050;-14
2023/01/26 08:32:09;;;;;;;20.52;9.57;;;4.70;72.00;;;;;;5072627;28;20024;-13
2023/01/26 08:34:35;;;;;;;18.25;8.85;;;4.80;71.60;;;;;;5072131;28;20056;-14
2023/01/26 08:37:02;;;;;;;19.52;9.93;;;4.80;71.10;;;;;;5072457;28;20029;-13
2023/01/26 08:39:28;;;;;;;19.27;10.30;;;4.90;70.00;;;;;;5072342;28;20035;-14
2023/01/26 08:41:54;;;;;;;21.83;10.15;;;4.90;69.90;;;;;;5072665;28;20033;-13
2023/01/26 08:44:20;;;;;;;20.40;9.75;;;4.90;68.70;;;;;;5072277;28;20093;-13
2023/01/26 08:46:46;;;;;;;23.25;10.18;;;5.00;70.10;;;;;;5075430;28;20028;-13
2023/01/26 08:49:13;;;;;;;23.33;10.25;;;5.10;69.20;;;;;;5075069;28;20488;-13
2023/01/26 08:51:39;;;;;;;21.15;9.88;;;5.20;69.40;;;;;;5076296;28;20029;-13
2023/01/26 08:54:07;;;;;;;20.23;9.38;;;5.40;69.40;;;;;;5076351;28;20021;-12
2023/01/26 08:56:33;;;;;;;16.67;8.93;;;5.50;68.30;;;;;;5076402;28;20028;-14
2023/01/26 08:59:00;;;;;;;18.05;9.35;;;5.60;68.60;;;;;;5075779;28;20476;-14
2023/01/26 09:01:26;;;;;;;19.30;9.80;;;5.70;68.00;;;;;;5076166;28;20055;-12
2023/01/26 09:03:52;;;;;;;17.83;9.32;;;5.90;67.30;;;;;;5076125;28;20473;-13
2023/01/26 09:06:18;;;;;;;18.95;9.77;;;5.90;67.20;;;;;;5076037;28;20337;-12
2023/01/26 09:08:44;;;;;;;19.05;8.93;;;6.10;67.10;;;;;;5075985;28;20554;-12
2023/01/26 09:11:11;;;;;;;16.98;9.13;;;6.30;67.10;;;;;;5075650;28;20025;-14
2023/01/26 09:13:37;;;;;;;19.05;9.20;;;6.50;66.40;;;;;;5076076;28;20103;-13
2023/01/26 09:16:11;;;;;;;20.80;8.70;;;6.70;66.10;;;;;;5076177;28;20078;-13
2023/01/26 09:18:37;;;;;;;;;;;6.90;65.90;;;;;;5076149;28;20029;-13
2023/01/26 09:21:04;;;;;;;17.65;9.20;;;7.20;65.80;;;;;;5075837;28;19904;-13
2023/01/26 09:23:32;;;;;;;16.58;8.43;;;7.40;64.90;;;;;;5075981;28;20495;-13
2023/01/26 09:25:58;;;;;;;18.98;9.55;;;7.60;63.70;;;;;;5075714;28;20026;-12
2023/01/26 09:28:24;;;;;;;17.38;8.98;;;7.70;63.60;;;;;;5075624;28;20103;-14
2023/01/26 09:30:50;;;;;;;17.45;9.00;;;7.90;63.60;;;;;;5075364;28;20036;-13
2023/01/26 09:33:16;;;;;;;17.65;8.60;;;8.20;62.50;;;;;;5075920;28;20027;-13
2023/01/26 09:35:42;;;;;;;19.98;9.85;;;8.20;60.40;;;;;;5075359;28;20087;-13
2023/01/26 09:38:08;;;;;;;15.05;7.63;;;8.30;60.20;;;;;;5075422;28;20024;-13
2023/01/26 09:40:48;;;;;;;16.02;7.88;;;8.30;56.30;;;;;;5075527;28;20035;-14
2023/01/26 09:43:36;;;;;;;15.90;7.55;;;8.30;57.70;;;;;;5075398;28;20488;-12
2023/01/26 09:46:08;;;;;;;16.67;8.05;;;8.30;58.50;;;;;;5075731;28;20035;-11
2023/01/26 09:48:39;;;;;;;14.80;7.65;;;8.40;57.90;;;;;;5075822;28;20059;-13
2023/01/26 09:51:09;;;;;;;17.15;8.48;;;8.40;56.10;;;;;;5075180;28;20127;-12
2023/01/26 09:53:56;;;;;;;17.80;8.15;;;8.40;57.60;;;;;;5075276;28;20036;-13
2023/01/26 09:56:27;;;;;;;16.35;8.52;;;8.40;57.30;;;;;;5074746;28;20049;-13
2023/01/26 09:59:34;;;;;;;17.75;8.30;;;8.60;58.10;;;;;;5074730;28;20028;-13
2023/01/26 10:02:39;;;;;;;16.52;7.95;;;8.60;56.00;;;;;;5074474;28;20508;-13
2023/01/26 10:05:35;;;;;;;14.73;7.97;;;8.80;56.70;;;;;;5058922;28;20496;-13
2023/01/26 10:08:01;;;;;;;16.30;8.10;;;8.90;56.30;;;;;;5032724;28;20033;-13
2023/01/26 10:10:35;;;;;;;16.92;8.60;;;8.90;56.80;;;;;;5032808;28;20033;-13
2023/01/26 10:13:01;;;;;;;16.80;8.25;;;8.90;55.30;;;;;;5032975;28;20045;-12
2023/01/26 10:15:32;;;;;;;17.40;8.40;;;9.00;57.30;;;;;;5032696;28;20034;-13
2023/01/26 10:18:06;;;;;;;15.50;7.65;;;9.10;56.10;;;;;;5032761;28;20029;-13
2023/01/26 10:20:54;;;;;;;14.65;7.93;;;9.20;56.10;;;;;;5032569;28;20078;-13
2023/01/26 10:23:29;;;;;;;17.48;8.48;;;9.40;54.30;;;;;;5033165;28;20542;-13
2023/01/26 10:26:06;;;;;;;15.48;8.15;;;9.60;55.70;;;;;;5032649;28;20111;-13
2023/01/26 10:28:34;;;;;;;15.77;8.68;;;9.70;54.60;;;;;;5032428;28;20076;-13
2023/01/26 10:31:04;;;;;;;15.27;7.57;;;9.90;53.10;;;;;;5032160;28;20021;-12
2023/01/26 10:33:35;;;;;;;14.25;7.90;;;9.90;54.80;;;;;;5032788;28;20386;-13
2023/01/26 10:36:04;;;;;;;16.95;7.68;;;10.10;53.10;;;;;;5032233;28;20053;-13
2023/01/26 10:38:36;;;;;;;16.88;7.43;;;10.20;53.20;;;;;;5032542;28;20451;-12
2023/01/26 10:41:04;;;;;;;14.07;7.20;;;10.40;52.30;;;;;;5032068;28;20098;-14
2023/01/26 10:43:42;;;;;;;15.90;7.65;;;10.50;51.50;;;;;;5032290;28;20177;-13
2023/01/26 10:46:27;;;;;;;13.90;7.07;;;10.60;49.70;;;;;;5073381;28;20035;-13
2023/01/26 10:48:55;;;;;;;15.63;7.25;;;10.60;49.80;;;;;;5072785;28;20096;-11
2023/01/26 10:51:30;;;;;;;12.55;7.10;;;10.60;51.90;;;;;;5074375;28;20504;-12
2023/01/26 10:54:23;;;;;;;16.77;7.70;;;10.80;52.00;;;;;;5074049;28;20021;-12
2023/01/26 10:57:06;;;;;;;13.73;7.25;;;11.10;50.30;;;;;;5074218;28;20025;-12
2023/01/26 10:59:53;;;;;;;14.63;7.43;;;11.20;50.90;;;;;;5073613;28;20036;-13
2023/01/26 11:02:30;;;;;;;14.38;7.80;;;11.40;50.10;;;;;;5074286;28;20024;-13
2023/01/26 11:05:01;;;;;;;14.02;6.88;;;11.60;50.60;;;;;;5073894;28;20091;-13
2023/01/26 11:07:33;;;;;;;12.57;7.07;;;11.90;49.10;;;;;;5073477;28;20042;-12
2023/01/26 11:10:16;;;;;;;14.63;8.13;;;12.00;48.40;;;;;;5073240;28;20017;-13
2023/01/26 11:12:42;;;;;;;13.13;7.70;;;12.10;45.10;;;;;;5073942;28;20083;-13
2023/01/26 11:15:20;;;;;;;12.18;6.43;;;12.10;46.40;;;;;;5073693;28;20029;-13
2023/01/26 11:17:58;;;;;;;15.25;7.10;;;11.90;47.40;;;;;;5073669;28;20020;-13
2023/01/26 11:21:18;;;;;;;12.43;6.20;;;12.00;46.70;;;;;;5073453;28;20086;-12
2023/01/26 11:24:02;;;;;;;11.68;6.40;;;12.40;48.30;;;;;;5031583;28;20393;-12
2023/01/26 11:27:01;;;;;;;12.98;7.03;;;12.80;46.20;;;;;;5031350;28;20053;-13
2023/01/26 11:29:51;;;;;;;12.77;7.03;;;13.10;46.50;;;;;;5031625;28;20129;-14
2023/01/26 11:32:43;;;;;;;13.02;6.90;;;13.40;45.90;;;;;;5031388;28;20057;-13
2023/01/26 11:35:39;;;;;;;14.00;7.07;;;13.60;43.30;;;;;;5030703;28;20053;-13
2023/01/26 11:38:15;;;;;;;13.90;7.70;;;13.80;42.50;;;;;;5031215;28;20029;-13
2023/01/26 11:40:58;;;;;;;13.27;6.97;;;13.70;43.50;;;;;;5031198;28;20117;-13
2023/01/26 11:43:57;;;;;;;12.43;6.55;;;13.70;43.70;;;;;;5031006;28;20529;-13
2023/01/26 11:46:41;;;;;;;14.15;6.70;;;13.80;43.30;;;;;;5031226;28;20045;-12
2023/01/26 11:49:22;;;;;;;13.10;6.93;;;14.00;43.70;;;;;;5030744;28;20029;-12
2023/01/26 11:52:17;;;;;;;15.98;7.07;;;14.20;43.10;;;;;;5031193;28;20551;-14
2023/01/26 11:54:43;;;;;;;;;;;14.40;40.40;;;;;;5029230;28;20033;-13
2023/01/26 11:57:23;;;;;;;13.57;6.72;;;14.60;40.30;;;;;;5041599;28;19911;-13
2023/01/26 11:59:51;;;;;;;13.52;7.38;;;14.70;40.50;;;;;;5073070;28;20038;-21
2023/01/26 12:02:20;;;;;;;14.23;7.10;;;14.90;41.20;;;;;;5072706;28;20488;-11
2023/01/26 12:04:46;;;;;;;13.25;7.03;;;15.00;40.40;;;;;;5073442;28;20097;-13
2023/01/26 12:07:30;;;;;;;12.35;7.03;;;15.20;40.50;;;;;;5073028;28;20107;-13
2023/01/26 12:09:59;;;;;;;14.07;7.05;;;15.30;39.50;;;;;;5073010;28;20040;-12
2023/01/26 12:12:42;;;;;;;12.43;6.72;;;15.20;38.70;;;;;;5072515;28;20484;-16
2023/01/26 12:15:17;;;;;;;12.55;6.70;;;15.10;39.50;;;;;;5071095;28;20027;-13
2023/01/26 12:18:11;;;;;;;11.98;7.07;;;15.10;39.70;;;;;;5072572;28;20036;-13
2023/01/26 12:20:50;;;;;;;12.63;6.68;;;15.10;40.10;;;;;;5072728;28;20035;-12
2023/01/26 12:23:30;;;;;;;13.85;7.60;;;14.90;40.50;;;;;;5072892;28;20071;-13
2023/01/26 12:26:09;;;;;;;13.20;6.78;;;14.80;39.30;;;;;;5072458;28;20473;-13
2023/01/26 12:28:44;;;;;;;12.57;7.35;;;14.70;40.50;;;;;;5072898;28;20031;-13
2023/01/26 12:31:30;;;;;;;13.77;6.93;;;14.80;41.30;;;;;;5072557;28;20162;-12
2023/01/26 12:33:56;;;;;;;13.48;7.30;;;14.90;40.30;;;;;;5072380;28;20115;-13
2023/01/26 12:36:42;;;;;;;13.43;7.10;;;15.00;39.10;;;;;;5073114;28;20099;-13
2023/01/26 12:39:19;;;;;;;13.52;7.32;;;15.00;39.40;;;;;;5071921;28;20387;-12
2023/01/26 12:41:57;;;;;;;12.02;6.55;;;15.10;39.30;;;;;;5072364;28;20123;-13
2023/01/26 12:44:29;;;;;;;15.15;7.95;;;15.30;36.70;;;;;;5072463;28;20024;-13
2023/01/26 12:47:05;;;;;;;13.25;7.20;;;15.20;37.00;;;;;;5070880;28;20067;-13
2023/01/26 12:49:36;;;;;;;11.25;6.38;;;15.00;37.40;;;;;;5072581;28;20033;-12
2023/01/26 12:52:10;;;;;;;13.52;6.95;;;14.70;38.30;;;;;;5071430;28;20385;-12
2023/01/26 12:54:57;;;;;;;11.32;6.63;;;14.20;38.70;;;;;;5072343;28;20073;-13
2023/01/26 12:57:32;;;;;;;12.25;6.88;;;14.00;39.70;;;;;;5072578;28;20036;-13
2023/01/26 13:00:22;;;;;;;12.93;6.68;;;14.20;38.60;;;;;;5072449;28;20041;-13
2023/01/26 13:02:55;;;;;;;10.27;5.88;;;14.20;39.40;;;;;;5066921;28;20032;-17
2023/01/26 13:05:27;;;;;;;12.87;6.90;;;14.20;40.20;;;;;;5072200;28;20036;-12
2023/01/26 13:07:53;;;;;;;12.85;7.18;;;14.30;40.80;;;;;;5071996;28;20108;-13
2023/01/26 13:10:28;;;;;;;15.13;8.45;;;14.40;41.00;;;;;;5072335;28;20022;-13
2023/01/26 13:13:19;;;;;;;15.23;7.78;;;14.50;40.40;;;;;;5071823;28;20024;-13
2023/01/26 13:15:45;;;;;;;14.75;7.78;;;14.50;41.00;;;;;;5071898;28;20025;-13
2023/01/26 13:18:16;;;;;;;12.10;6.75;;;14.50;40.60;;;;;;5071951;28;20039;-13
2023/01/26 13:20:42;;;;;;;13.75;6.72;;;14.30;40.90;;;;;;5072580;28;20017;-13
2023/01/26 13:23:35;;;;;;;14.98;7.82;;;14.00;41.60;;;;;;5071671;28;20036;-15
2023/01/26 13:26:20;;;;;;;14.05;7.10;;;14.20;41.20;;;;;;5072215;28;20029;-13
2023/01/26 13:28:47;;;;;;;14.35;7.22;;;14.30;40.80;;;;;;5072123;28;20029;-13
2023/01/26 13:31:29;;;;;;;11.90;6.45;;;14.30;40.10;;;;;;5072127;28;20028;-12
2023/01/26 13:33:58;;;;;;;12.30;6.50;;;14.20;40.20;;;;;;5075835;28;20040;-13
2023/01/26 13:36:26;;;;;;;11.13;6.30;;;14.20;40.60;;;;;;5075399;28;20105;-14
2023/01/26 13:39:00;;;;;;;13.93;7.72;;;14.20;40.30;;;;;;5075079;28;20115;-14
2023/01/26 13:41:26;;;;;;;13.27;6.95;;;14.20;40.90;;;;;;5075805;28;20031;-14
2023/01/26 13:44:07;;;;;;;13.93;7.30;;;14.20;40.90;;;;;;5075427;28;20029;-13
2023/01/26 13:46:58;;;;;;;12.57;7.07;;;14.20;40.40;;;;;;5075291;28;20024;-13
2023/01/26 13:49:46;;;;;;;13.73;7.00;;;14.20;40.10;;;;;;5075495;28;20047;-14